createdAt,value
2017-03-12T00:00:05.569Z,0
2017-03-12T00:01:05.484Z,0
2017-03-12T00:02:05.601Z,0
2017-03-12T00:03:05.243Z,0
2017-03-12T00:04:05.492Z,0
2017-03-12T00:05:05.134Z,0
2017-03-12T00:06:06.018Z,0
2017-03-12T00:07:05.527Z,0
2017-03-12T00:08:05.569Z,0
2017-03-12T00:09:05.989Z,0
2017-03-12T00:10:05.987Z,0
2017-03-12T00:11:05.637Z,0
2017-03-12T00:12:05.945Z,0
2017-03-12T00:13:05.673Z,0
2017-03-12T00:14:20.427Z,0
2017-03-12T00:15:05.973Z,0
2017-03-12T00:16:06.033Z,0
2017-03-12T00:17:05.646Z,0
2017-03-12T00:18:06.033Z,0
2017-03-12T00:19:05.682Z,0
2017-03-12T00:20:05.654Z,0
2017-03-12T00:21:05.700Z,0
2017-03-12T00:22:05.699Z,0
2017-03-12T00:23:06.283Z,0
2017-03-12T00:24:06.021Z,0
2017-03-12T00:25:05.678Z,0
2017-03-12T00:26:06.034Z,0
2017-03-12T00:27:05.747Z,0
2017-03-12T00:28:05.747Z,0
2017-03-12T00:29:05.695Z,0
2017-03-12T00:30:06.060Z,0
2017-03-12T00:31:05.751Z,0
2017-03-12T00:32:06.122Z,0
2017-03-12T00:33:05.735Z,0
2017-03-12T00:34:06.126Z,0
2017-03-12T00:35:05.729Z,0
2017-03-12T00:36:06.309Z,0
2017-03-12T00:37:05.791Z,0
2017-03-12T00:38:06.146Z,0
2017-03-12T00:39:06.246Z,0
2017-03-12T00:40:06.163Z,0
2017-03-12T00:41:05.762Z,0
2017-03-12T00:42:06.223Z,0
2017-03-12T00:43:05.736Z,0
2017-03-12T00:44:06.274Z,0
2017-03-12T00:45:06.178Z,0
2017-03-12T00:46:06.190Z,0
2017-03-12T00:47:05.354Z,0
2017-03-12T00:48:06.158Z,0
2017-03-12T00:49:06.216Z,0
2017-03-12T00:50:06.210Z,0
2017-03-12T00:51:06.308Z,0
2017-03-12T00:52:06.238Z,0
2017-03-12T00:53:06.282Z,0
2017-03-12T00:54:06.199Z,0
2017-03-12T00:55:06.262Z,0
2017-03-12T00:56:06.263Z,0
2017-03-12T00:57:05.858Z,0
2017-03-12T00:58:05.939Z,0
2017-03-12T00:59:06.223Z,0
2017-03-12T01:00:06.224Z,0
2017-03-12T01:01:05.990Z,0
2017-03-12T01:02:06.291Z,0
2017-03-12T01:03:06.412Z,0
2017-03-12T01:04:05.452Z,0
2017-03-12T01:05:06.317Z,0
2017-03-12T01:06:05.521Z,0
2017-03-12T01:07:06.018Z,0
2017-03-12T01:08:05.891Z,0
2017-03-12T01:09:05.930Z,0
2017-03-12T01:10:05.981Z,0
2017-03-12T01:11:06.360Z,0
2017-03-12T01:12:06.658Z,0
2017-03-12T01:13:06.403Z,0
2017-03-12T01:14:07.861Z,0
2017-03-12T01:15:05.984Z,0
2017-03-12T01:16:06.322Z,0
2017-03-12T01:17:06.392Z,0
2017-03-12T01:18:05.977Z,0
2017-03-12T01:19:06.386Z,0
2017-03-12T01:20:05.665Z,0
2017-03-12T01:21:05.651Z,0
2017-03-12T01:22:05.615Z,0
2017-03-12T01:23:06.007Z,0
2017-03-12T01:24:06.410Z,0
2017-03-12T01:25:06.492Z,0
2017-03-12T01:26:06.441Z,0
2017-03-12T01:27:06.509Z,0
2017-03-12T01:28:06.439Z,0
2017-03-12T01:29:06.442Z,0
2017-03-12T01:30:06.498Z,0
2017-03-12T01:31:06.470Z,0
2017-03-12T01:32:06.461Z,0
2017-03-12T01:33:06.018Z,0
2017-03-12T01:34:06.436Z,0
2017-03-12T01:35:06.556Z,0
2017-03-12T01:36:06.489Z,0
2017-03-12T01:37:05.701Z,0
2017-03-12T01:38:06.062Z,0
2017-03-12T01:39:06.560Z,0
2017-03-12T01:40:06.576Z,0
2017-03-12T01:41:06.567Z,0
2017-03-12T01:42:06.077Z,0
2017-03-12T01:43:06.485Z,0
2017-03-12T01:44:20.997Z,0
2017-03-12T01:45:05.793Z,0
2017-03-12T01:46:06.143Z,0
2017-03-12T01:47:06.508Z,0
2017-03-12T01:48:06.606Z,0
2017-03-12T01:49:06.520Z,0
2017-03-12T01:50:06.135Z,0
2017-03-12T01:51:06.221Z,0
2017-03-12T01:52:06.174Z,0
2017-03-12T01:53:06.535Z,0
2017-03-12T01:54:06.251Z,0
2017-03-12T01:55:06.600Z,0
2017-03-12T01:56:06.556Z,0
2017-03-12T01:57:06.613Z,0
2017-03-12T01:58:06.713Z,0
2017-03-12T01:59:06.713Z,0
2017-03-12T02:00:06.623Z,0
2017-03-12T02:01:06.677Z,0
2017-03-12T02:02:06.249Z,0
2017-03-12T02:03:06.643Z,0
2017-03-12T02:04:06.691Z,0
2017-03-12T02:05:06.251Z,0
2017-03-12T02:06:06.272Z,0
2017-03-12T02:07:06.615Z,0
2017-03-12T02:08:06.678Z,0
2017-03-12T02:09:06.276Z,0
2017-03-12T02:10:06.810Z,0
2017-03-12T02:11:06.340Z,0
2017-03-12T02:12:06.295Z,0
2017-03-12T02:13:06.699Z,0
2017-03-12T02:14:06.666Z,0
2017-03-12T02:15:06.669Z,0
2017-03-12T02:16:06.720Z,0
2017-03-12T02:17:06.280Z,0
2017-03-12T02:18:06.731Z,0
2017-03-12T02:19:06.349Z,0
2017-03-12T02:20:06.861Z,0
2017-03-12T02:21:06.693Z,0
2017-03-12T02:22:06.797Z,0
2017-03-12T02:23:06.412Z,0
2017-03-12T02:24:06.780Z,0
2017-03-12T02:25:06.898Z,0
2017-03-12T02:26:06.856Z,0
2017-03-12T02:27:06.733Z,0
2017-03-12T02:28:06.069Z,0
2017-03-12T02:29:06.396Z,0
2017-03-12T02:30:06.790Z,0
2017-03-12T02:31:06.773Z,0
2017-03-12T02:32:06.871Z,0
2017-03-12T02:33:06.758Z,0
2017-03-12T02:34:06.433Z,0
2017-03-12T02:35:06.508Z,0
2017-03-12T02:36:06.780Z,0
2017-03-12T02:37:06.785Z,0
2017-03-12T02:38:06.501Z,0
2017-03-12T02:39:06.864Z,0
2017-03-12T02:40:06.878Z,0
2017-03-12T02:41:06.864Z,0
2017-03-12T02:42:06.478Z,0
2017-03-12T02:43:06.839Z,0
2017-03-12T02:44:06.555Z,0
2017-03-12T02:45:06.936Z,0
2017-03-12T02:46:06.923Z,0
2017-03-12T02:47:07.785Z,0
2017-03-12T02:48:06.580Z,0
2017-03-12T02:49:06.874Z,0
2017-03-12T02:50:07.379Z,0
2017-03-12T02:51:06.977Z,0
2017-03-12T02:52:06.088Z,0
2017-03-12T02:53:07.032Z,0
2017-03-12T02:54:06.547Z,0
2017-03-12T02:55:06.945Z,0
2017-03-12T02:56:07.139Z,0
2017-03-12T02:57:06.233Z,0
2017-03-12T02:58:07.463Z,0
2017-03-12T02:59:07.635Z,0
2017-03-12T03:00:06.975Z,0
2017-03-12T03:01:06.540Z,0
2017-03-12T03:02:07.005Z,0
2017-03-12T03:03:06.937Z,0
2017-03-12T03:04:07.071Z,0
2017-03-12T03:05:07.030Z,0
2017-03-12T03:06:07.031Z,0
2017-03-12T03:07:06.389Z,0
2017-03-12T03:08:06.986Z,0
2017-03-12T03:09:06.729Z,0
2017-03-12T03:10:06.689Z,0
2017-03-12T03:11:07.003Z,0
2017-03-12T03:12:07.010Z,0
2017-03-12T03:13:07.047Z,0
2017-03-12T03:14:06.229Z,0
2017-03-12T03:15:07.171Z,0
2017-03-12T03:16:07.178Z,0
2017-03-12T03:17:06.006Z,0
2017-03-12T03:18:07.082Z,0
2017-03-12T03:19:06.690Z,0
2017-03-12T03:20:06.253Z,0
2017-03-12T03:21:07.130Z,0
2017-03-12T03:22:06.770Z,0
2017-03-12T03:23:06.674Z,0
2017-03-12T03:24:06.674Z,0
2017-03-12T03:25:06.731Z,0
2017-03-12T03:26:06.783Z,0
2017-03-12T03:27:07.155Z,0
2017-03-12T03:28:06.745Z,0
2017-03-12T03:29:07.154Z,0
2017-03-12T03:30:07.101Z,0
2017-03-12T03:31:07.170Z,0
2017-03-12T03:32:07.111Z,0
2017-03-12T03:33:07.180Z,0
2017-03-12T03:34:07.178Z,0
2017-03-12T03:35:06.816Z,0
2017-03-12T03:36:07.253Z,0
2017-03-12T03:37:06.750Z,0
2017-03-12T03:38:06.891Z,0
2017-03-12T03:39:07.149Z,0
2017-03-12T03:40:07.310Z,0
2017-03-12T03:41:06.901Z,0
2017-03-12T03:42:07.246Z,0
2017-03-12T03:43:07.200Z,0
2017-03-12T03:44:07.298Z,0
2017-03-12T03:45:06.902Z,0
2017-03-12T03:46:07.251Z,0
2017-03-12T03:47:06.832Z,0
2017-03-12T03:48:07.658Z,0
2017-03-12T03:49:07.377Z,0
2017-03-12T03:50:07.340Z,0
2017-03-12T03:51:06.834Z,0
2017-03-12T03:52:07.319Z,0
2017-03-12T03:53:07.276Z,0
2017-03-12T03:54:07.300Z,0
2017-03-12T03:55:07.958Z,0
2017-03-12T03:56:07.312Z,0
2017-03-12T03:57:07.385Z,0
2017-03-12T03:58:07.326Z,0
2017-03-12T03:59:07.393Z,0
2017-03-12T04:00:07.501Z,0
2017-03-12T04:01:07.359Z,0
2017-03-12T04:02:07.361Z,0
2017-03-12T04:03:07.409Z,0
2017-03-12T04:04:07.355Z,0
2017-03-12T04:05:07.715Z,0
2017-03-12T04:06:06.971Z,0
2017-03-12T04:07:06.992Z,0
2017-03-12T04:08:06.937Z,0
2017-03-12T04:09:07.024Z,0
2017-03-12T04:10:06.948Z,0
2017-03-12T04:11:07.410Z,0
2017-03-12T04:12:07.061Z,0
2017-03-12T04:13:07.462Z,0
2017-03-12T04:14:21.867Z,0
2017-03-12T04:15:07.434Z,0
2017-03-12T04:16:07.453Z,0
2017-03-12T04:17:07.101Z,0
2017-03-12T04:18:07.388Z,0
2017-03-12T04:19:07.502Z,0
2017-03-12T04:20:07.429Z,0
2017-03-12T04:21:07.480Z,0
2017-03-12T04:22:07.084Z,0
2017-03-12T04:23:07.522Z,0
2017-03-12T04:24:07.497Z,0
2017-03-12T04:25:07.488Z,0
2017-03-12T04:26:06.656Z,0
2017-03-12T04:27:06.700Z,0
2017-03-12T04:28:07.458Z,0
2017-03-12T04:29:07.458Z,0
2017-03-12T04:30:07.063Z,0
2017-03-12T04:31:07.544Z,0
2017-03-12T04:32:07.133Z,0
2017-03-12T04:33:07.228Z,0
2017-03-12T04:34:07.635Z,0
2017-03-12T04:35:07.661Z,0
2017-03-12T04:36:07.495Z,0
2017-03-12T04:37:07.178Z,0
2017-03-12T04:38:09.088Z,0
2017-03-12T04:39:07.578Z,0
2017-03-12T04:40:07.222Z,0
2017-03-12T04:41:07.578Z,0
2017-03-12T04:42:07.603Z,0
2017-03-12T04:43:07.239Z,0
2017-03-12T04:44:36.152Z,0
2017-03-12T04:45:07.553Z,0
2017-03-12T04:46:07.230Z,0
2017-03-12T04:47:07.644Z,0
2017-03-12T04:48:07.670Z,0
2017-03-12T04:49:07.680Z,0
2017-03-12T04:50:07.661Z,0
2017-03-12T04:51:07.966Z,0
2017-03-12T04:52:07.702Z,0
2017-03-12T04:53:07.618Z,0
2017-03-12T04:54:07.355Z,0
2017-03-12T04:55:07.219Z,0
2017-03-12T04:56:07.731Z,0
2017-03-12T04:57:07.686Z,0
2017-03-12T04:58:07.906Z,0
2017-03-12T04:59:07.704Z,0
2017-03-12T05:00:07.966Z,0
2017-03-12T05:01:07.280Z,0
2017-03-12T05:02:07.767Z,0
2017-03-12T05:03:07.664Z,0
2017-03-12T05:04:07.713Z,0
2017-03-12T05:05:07.728Z,0
2017-03-12T05:06:07.828Z,0
2017-03-12T05:07:07.745Z,0
2017-03-12T05:08:06.919Z,0
2017-03-12T05:09:07.755Z,0
2017-03-12T05:10:07.711Z,0
2017-03-12T05:11:07.762Z,0
2017-03-12T05:12:07.029Z,0
2017-03-12T05:13:07.883Z,0
2017-03-12T05:14:08.729Z,0
2017-03-12T05:15:07.825Z,0
2017-03-12T05:16:07.346Z,0
2017-03-12T05:17:07.502Z,0
2017-03-12T05:18:07.758Z,0
2017-03-12T05:19:07.421Z,0
2017-03-12T05:20:07.370Z,0
2017-03-12T05:21:07.878Z,0
2017-03-12T05:22:07.909Z,0
2017-03-12T05:23:07.884Z,0
2017-03-12T05:24:07.406Z,0
2017-03-12T05:25:07.444Z,0
2017-03-12T05:26:07.899Z,0
2017-03-12T05:27:07.809Z,4
2017-03-12T05:28:07.476Z,4
2017-03-12T05:29:07.879Z,0
2017-03-12T05:30:07.843Z,0
2017-03-12T05:31:07.844Z,4
2017-03-12T05:32:07.831Z,4
2017-03-12T05:33:07.892Z,4
2017-03-12T05:34:07.924Z,4
2017-03-12T05:35:07.968Z,4
2017-03-12T05:36:08.013Z,8
2017-03-12T05:37:07.975Z,8
2017-03-12T05:38:07.167Z,8
2017-03-12T05:39:07.509Z,8
2017-03-12T05:40:07.985Z,8
2017-03-12T05:41:07.945Z,12
2017-03-12T05:42:07.938Z,12
2017-03-12T05:43:07.556Z,12
2017-03-12T05:44:36.911Z,16
2017-03-12T05:45:07.962Z,16
2017-03-12T05:46:08.282Z,16
2017-03-12T05:47:07.625Z,20
2017-03-12T05:48:07.940Z,20
2017-03-12T05:49:08.016Z,28
2017-03-12T05:50:08.042Z,28
2017-03-12T05:51:08.047Z,32
2017-03-12T05:52:08.077Z,36
2017-03-12T05:53:07.943Z,40
2017-03-12T05:54:08.080Z,44
2017-03-12T05:55:08.029Z,48
2017-03-12T05:56:07.975Z,56
2017-03-12T05:57:08.085Z,60
2017-03-12T05:58:07.701Z,64
2017-03-12T05:59:07.715Z,72
2017-03-12T06:00:08.113Z,80
2017-03-12T06:01:07.684Z,92
2017-03-12T06:02:08.042Z,104
2017-03-12T06:03:08.133Z,116
2017-03-12T06:04:08.036Z,124
2017-03-12T06:05:08.097Z,136
2017-03-12T06:06:08.046Z,148
2017-03-12T06:07:06.976Z,164
2017-03-12T06:08:08.158Z,176
2017-03-12T06:09:08.160Z,188
2017-03-12T06:10:07.824Z,204
2017-03-12T06:11:08.150Z,216
2017-03-12T06:12:08.237Z,224
2017-03-12T06:13:08.091Z,240
2017-03-12T06:14:08.304Z,248
2017-03-12T06:15:07.746Z,268
2017-03-12T06:16:07.705Z,280
2017-03-12T06:17:07.769Z,296
2017-03-12T06:18:08.271Z,308
2017-03-12T06:19:08.280Z,328
2017-03-12T06:20:08.125Z,340
2017-03-12T06:21:08.188Z,360
2017-03-12T06:22:08.137Z,380
2017-03-12T06:23:08.168Z,400
2017-03-12T06:24:07.912Z,416
2017-03-12T06:25:07.468Z,436
2017-03-12T06:26:08.238Z,452
2017-03-12T06:27:07.773Z,472
2017-03-12T06:28:08.232Z,492
2017-03-12T06:29:08.243Z,512
2017-03-12T06:30:07.850Z,532
2017-03-12T06:31:08.288Z,560
2017-03-12T06:32:08.220Z,584
2017-03-12T06:33:08.278Z,600
2017-03-12T06:34:07.926Z,612
2017-03-12T06:35:08.220Z,616
2017-03-12T06:36:07.479Z,628
2017-03-12T06:37:08.333Z,636
2017-03-12T06:38:08.359Z,648
2017-03-12T06:39:07.953Z,660
2017-03-12T06:40:08.296Z,672
2017-03-12T06:41:07.867Z,688
2017-03-12T06:42:07.930Z,704
2017-03-12T06:43:08.336Z,720
2017-03-12T06:44:07.946Z,736
2017-03-12T06:45:07.985Z,752
2017-03-12T06:46:08.291Z,772
2017-03-12T06:47:08.302Z,788
2017-03-12T06:48:08.362Z,800
2017-03-12T06:49:08.391Z,816
2017-03-12T06:50:07.189Z,832
2017-03-12T06:51:08.327Z,840
2017-03-12T06:52:07.933Z,852
2017-03-12T06:53:08.409Z,868
2017-03-12T06:54:08.347Z,876
2017-03-12T06:55:08.090Z,888
2017-03-12T06:56:08.465Z,900
2017-03-12T06:57:07.968Z,912
2017-03-12T06:58:08.132Z,920
2017-03-12T06:59:08.396Z,928
2017-03-12T07:00:08.444Z,940
2017-03-12T07:01:08.110Z,948
2017-03-12T07:02:08.441Z,964
2017-03-12T07:03:08.015Z,972
2017-03-12T07:04:08.124Z,988
2017-03-12T07:05:08.212Z,1000
2017-03-12T07:06:08.547Z,1016
2017-03-12T07:07:08.485Z,1032
2017-03-12T07:08:08.493Z,1044
2017-03-12T07:09:08.443Z,1064
2017-03-12T07:10:08.518Z,1068
2017-03-12T07:11:08.561Z,1080
2017-03-12T07:12:08.109Z,1084
2017-03-12T07:13:08.672Z,1092
2017-03-12T07:14:10.039Z,1096
2017-03-12T07:15:08.535Z,1104
2017-03-12T07:16:08.156Z,1108
2017-03-12T07:17:08.614Z,1112
2017-03-12T07:18:08.217Z,1120
2017-03-12T07:19:08.577Z,1128
2017-03-12T07:20:08.521Z,1136
2017-03-12T07:21:08.577Z,1140
2017-03-12T07:22:08.671Z,1148
2017-03-12T07:23:08.580Z,1156
2017-03-12T07:24:08.588Z,1164
2017-03-12T07:25:08.174Z,1168
2017-03-12T07:26:08.678Z,1176
2017-03-12T07:27:08.220Z,1184
2017-03-12T07:28:08.614Z,1188
2017-03-12T07:29:08.679Z,1200
2017-03-12T07:30:08.685Z,1208
2017-03-12T07:31:08.639Z,1228
2017-03-12T07:32:08.643Z,1244
2017-03-12T07:33:08.653Z,1264
2017-03-12T07:34:08.718Z,1288
2017-03-12T07:35:08.933Z,1308
2017-03-12T07:36:08.329Z,1324
2017-03-12T07:37:08.649Z,1336
2017-03-12T07:38:08.347Z,1348
2017-03-12T07:39:09.463Z,1356
2017-03-12T07:40:08.695Z,1368
2017-03-12T07:41:08.714Z,1372
2017-03-12T07:42:08.318Z,1380
2017-03-12T07:43:08.665Z,1388
2017-03-12T07:44:23.410Z,1392
2017-03-12T07:45:08.393Z,1396
2017-03-12T07:46:08.749Z,1404
2017-03-12T07:47:08.348Z,1412
2017-03-12T07:48:08.513Z,1412
2017-03-12T07:49:08.751Z,1420
2017-03-12T07:50:08.727Z,1428
2017-03-12T07:51:08.775Z,1440
2017-03-12T07:52:08.372Z,1452
2017-03-12T07:53:08.849Z,1460
2017-03-12T07:54:08.791Z,1464
2017-03-12T07:55:08.400Z,1464
2017-03-12T07:56:08.808Z,1480
2017-03-12T07:57:08.369Z,1504
2017-03-12T07:58:08.889Z,1536
2017-03-12T07:59:08.775Z,1560
2017-03-12T08:00:08.962Z,1580
2017-03-12T08:01:08.845Z,1604
2017-03-12T08:02:08.845Z,1620
2017-03-12T08:03:08.861Z,1636
2017-03-12T08:04:09.114Z,1648
2017-03-12T08:05:08.433Z,1664
2017-03-12T08:06:08.889Z,1680
2017-03-12T08:07:08.921Z,1712
2017-03-12T08:08:08.959Z,1740
2017-03-12T08:09:08.966Z,1776
2017-03-12T08:10:09.194Z,1812
2017-03-12T08:11:08.518Z,1860
2017-03-12T08:12:08.915Z,1908
2017-03-12T08:13:08.927Z,2032
2017-03-12T08:14:08.529Z,2244
2017-03-12T08:15:08.542Z,3752
2017-03-12T08:16:09.005Z,5768
2017-03-12T08:17:08.607Z,6108
2017-03-12T08:18:09.714Z,5992
2017-03-12T08:19:08.164Z,6644
2017-03-12T08:20:08.227Z,7860
2017-03-12T08:21:08.595Z,7088
2017-03-12T08:22:08.986Z,7620
2017-03-12T08:23:08.548Z,8068
2017-03-12T08:24:08.603Z,7260
2017-03-12T08:25:09.022Z,7564
2017-03-12T08:26:08.629Z,7468
2017-03-12T08:27:09.473Z,6932
2017-03-12T08:28:08.994Z,7148
2017-03-12T08:29:09.001Z,7248
2017-03-12T08:30:08.651Z,7928
2017-03-12T08:31:09.164Z,7608
2017-03-12T08:32:09.121Z,7464
2017-03-12T08:33:08.689Z,7644
2017-03-12T08:34:08.736Z,8236
2017-03-12T08:35:09.063Z,8324
2017-03-12T08:36:09.157Z,6572
2017-03-12T08:37:08.779Z,5880
2017-03-12T08:38:08.675Z,6072
2017-03-12T08:39:09.138Z,6496
2017-03-12T08:40:09.206Z,7972
2017-03-12T08:41:09.102Z,6852
2017-03-12T08:42:08.819Z,4700
2017-03-12T08:43:08.343Z,4104
2017-03-12T08:44:10.392Z,4000
2017-03-12T08:45:08.495Z,4228
2017-03-12T08:46:08.883Z,4500
2017-03-12T08:47:09.168Z,5136
2017-03-12T08:48:09.172Z,5256
2017-03-12T08:49:09.177Z,5592
2017-03-12T08:50:09.356Z,6264
2017-03-12T08:51:09.253Z,6996
2017-03-12T08:52:09.317Z,7532
2017-03-12T08:53:08.823Z,6044
2017-03-12T08:54:09.321Z,4904
2017-03-12T08:55:08.899Z,4336
2017-03-12T08:56:09.349Z,3556
2017-03-12T08:57:08.899Z,2908
2017-03-12T08:58:08.944Z,2592
2017-03-12T08:59:09.371Z,2444
2017-03-12T09:00:09.359Z,2420
2017-03-12T09:01:08.980Z,2512
2017-03-12T09:02:09.351Z,2636
2017-03-12T09:03:09.409Z,2764
2017-03-12T09:04:09.304Z,2900
2017-03-12T09:05:09.430Z,3188
2017-03-12T09:06:09.472Z,3656
2017-03-12T09:07:09.326Z,4136
2017-03-12T09:08:09.453Z,4352
2017-03-12T09:09:09.343Z,4504
2017-03-12T09:10:09.405Z,4808
2017-03-12T09:11:09.066Z,4384
2017-03-12T09:12:09.015Z,4464
2017-03-12T09:13:08.733Z,4712
2017-03-12T09:14:09.432Z,4580
2017-03-12T09:15:09.552Z,6012
2017-03-12T09:16:09.450Z,7808
2017-03-12T09:17:09.452Z,8036
2017-03-12T09:18:09.092Z,8344
2017-03-12T09:19:09.468Z,8208
2017-03-12T09:20:09.486Z,9008
2017-03-12T09:21:09.673Z,8948
2017-03-12T09:22:09.061Z,6188
2017-03-12T09:23:09.512Z,4052
2017-03-12T09:24:09.094Z,3684
2017-03-12T09:25:09.483Z,3580
2017-03-12T09:26:09.603Z,3484
2017-03-12T09:27:09.173Z,3440
2017-03-12T09:28:09.170Z,3364
2017-03-12T09:29:09.522Z,3340
2017-03-12T09:30:09.515Z,3204
2017-03-12T09:31:09.640Z,3080
2017-03-12T09:32:09.630Z,2976
2017-03-12T09:33:10.646Z,2804
2017-03-12T09:34:09.549Z,2624
2017-03-12T09:35:09.639Z,2520
2017-03-12T09:36:09.614Z,2444
2017-03-12T09:37:09.720Z,2364
2017-03-12T09:38:09.198Z,2352
2017-03-12T09:39:09.710Z,2292
2017-03-12T09:40:09.309Z,2176
2017-03-12T09:41:09.302Z,2100
2017-03-12T09:42:09.613Z,2028
2017-03-12T09:43:09.713Z,1960
2017-03-12T09:44:12.316Z,1912
2017-03-12T09:45:09.330Z,1884
2017-03-12T09:46:09.755Z,1864
2017-03-12T09:47:09.708Z,1876
2017-03-12T09:48:08.998Z,1864
2017-03-12T09:49:09.717Z,1836
2017-03-12T09:50:09.686Z,1864
2017-03-12T09:51:09.782Z,1836
2017-03-12T09:52:09.816Z,1832
2017-03-12T09:53:09.349Z,1840
2017-03-12T09:54:09.375Z,1848
2017-03-12T09:55:09.414Z,1904
2017-03-12T09:56:09.384Z,1852
2017-03-12T09:57:09.420Z,1944
2017-03-12T09:58:10.383Z,1960
2017-03-12T09:59:09.843Z,2108
2017-03-12T10:00:09.831Z,2052
2017-03-12T10:01:09.409Z,2124
2017-03-12T10:02:09.553Z,2064
2017-03-12T10:03:09.727Z,2068
2017-03-12T10:04:09.891Z,2024
2017-03-12T10:05:09.892Z,1968
2017-03-12T10:06:09.781Z,1968
2017-03-12T10:07:09.786Z,1936
2017-03-12T10:08:09.953Z,2064
2017-03-12T10:09:10.079Z,1868
2017-03-12T10:10:09.884Z,1776
2017-03-12T10:11:09.877Z,1800
2017-03-12T10:12:09.891Z,1876
2017-03-12T10:13:09.901Z,1812
2017-03-12T10:14:53.308Z,1904
2017-03-12T10:15:09.901Z,1904
2017-03-12T10:16:09.901Z,1796
2017-03-12T10:17:09.950Z,1836
2017-03-12T10:18:09.993Z,1792
2017-03-12T10:19:09.478Z,1700
2017-03-12T10:20:09.470Z,1752
2017-03-12T10:21:09.608Z,1708
2017-03-12T10:22:09.480Z,1712
2017-03-12T10:23:09.944Z,1692
2017-03-12T10:24:09.986Z,1684
2017-03-12T10:25:09.597Z,1664
2017-03-12T10:26:10.101Z,1668
2017-03-12T10:27:10.046Z,1640
2017-03-12T10:28:10.008Z,1644
2017-03-12T10:29:09.985Z,1632
2017-03-12T10:30:09.988Z,1600
2017-03-12T10:31:09.556Z,1576
2017-03-12T10:32:10.100Z,1580
2017-03-12T10:33:10.072Z,1576
2017-03-12T10:34:09.604Z,1568
2017-03-12T10:35:09.670Z,1568
2017-03-12T10:36:09.634Z,1560
2017-03-12T10:37:09.622Z,1544
2017-03-12T10:38:10.132Z,1540
2017-03-12T10:39:09.705Z,1508
2017-03-12T10:40:10.097Z,1520
2017-03-12T10:41:09.677Z,1512
2017-03-12T10:42:09.222Z,1504
2017-03-12T10:43:10.080Z,1500
2017-03-12T10:44:09.286Z,1496
2017-03-12T10:45:09.745Z,1484
2017-03-12T10:46:10.133Z,1472
2017-03-12T10:47:09.750Z,1456
2017-03-12T10:48:10.100Z,1448
2017-03-12T10:49:10.116Z,1396
2017-03-12T10:50:10.097Z,1412
2017-03-12T10:51:10.180Z,1404
2017-03-12T10:52:10.236Z,1412
2017-03-12T10:53:10.071Z,1404
2017-03-12T10:54:09.790Z,1388
2017-03-12T10:55:10.242Z,1372
2017-03-12T10:56:10.110Z,1360
2017-03-12T10:57:10.225Z,1352
2017-03-12T10:58:09.770Z,1344
2017-03-12T10:59:09.812Z,1340
2017-03-12T11:00:09.769Z,1328
2017-03-12T11:01:10.245Z,1316
2017-03-12T11:02:09.751Z,1308
2017-03-12T11:03:10.237Z,1296
2017-03-12T11:04:10.238Z,1292
2017-03-12T11:05:09.769Z,1288
2017-03-12T11:06:09.823Z,1276
2017-03-12T11:07:10.212Z,1272
2017-03-12T11:08:10.226Z,1268
2017-03-12T11:09:10.183Z,1260
2017-03-12T11:10:09.505Z,1260
2017-03-12T11:11:10.186Z,1248
2017-03-12T11:12:10.243Z,1240
2017-03-12T11:13:09.513Z,1232
2017-03-12T11:14:10.261Z,1212
2017-03-12T11:15:09.875Z,1164
2017-03-12T11:16:10.263Z,1200
2017-03-12T11:17:09.827Z,1200
2017-03-12T11:18:10.328Z,1192
2017-03-12T11:19:10.239Z,1180
2017-03-12T11:20:10.313Z,1184
2017-03-12T11:21:10.345Z,1168
2017-03-12T11:22:10.317Z,1152
2017-03-12T11:23:10.017Z,1140
2017-03-12T11:24:09.987Z,1160
2017-03-12T11:25:09.478Z,1160
2017-03-12T11:26:10.380Z,1160
2017-03-12T11:27:10.293Z,1144
2017-03-12T11:28:09.989Z,1128
2017-03-12T11:29:10.365Z,1088
2017-03-12T11:30:10.365Z,1112
2017-03-12T11:31:10.351Z,1116
2017-03-12T11:32:10.610Z,1116
2017-03-12T11:33:10.388Z,1104
2017-03-12T11:34:10.375Z,1084
2017-03-12T11:35:10.381Z,1052
2017-03-12T11:36:10.356Z,1004
2017-03-12T11:37:09.656Z,976
2017-03-12T11:38:10.118Z,912
2017-03-12T11:39:10.404Z,968
2017-03-12T11:40:10.465Z,1012
2017-03-12T11:41:10.028Z,1016
2017-03-12T11:42:10.026Z,1004
2017-03-12T11:43:10.434Z,1020
2017-03-12T11:44:10.440Z,1016
2017-03-12T11:45:10.050Z,1008
2017-03-12T11:46:10.516Z,1000
2017-03-12T11:47:10.004Z,1000
2017-03-12T11:48:10.469Z,996
2017-03-12T11:49:10.068Z,984
2017-03-12T11:50:10.470Z,984
2017-03-12T11:51:10.479Z,984
2017-03-12T11:52:10.498Z,980
2017-03-12T11:53:10.447Z,976
2017-03-12T11:54:10.145Z,976
2017-03-12T11:55:10.133Z,972
2017-03-12T11:56:10.465Z,976
2017-03-12T11:57:10.117Z,980
2017-03-12T11:58:10.518Z,976
2017-03-12T11:59:10.549Z,980
2017-03-12T12:00:10.531Z,968
2017-03-12T12:01:10.489Z,968
2017-03-12T12:02:10.562Z,964
2017-03-12T12:03:10.554Z,968
2017-03-12T12:04:10.549Z,968
2017-03-12T12:05:10.178Z,960
2017-03-12T12:06:10.188Z,956
2017-03-12T12:07:10.593Z,960
2017-03-12T12:08:10.232Z,952
2017-03-12T12:09:10.543Z,948
2017-03-12T12:10:10.921Z,936
2017-03-12T12:11:10.593Z,924
2017-03-12T12:12:10.652Z,916
2017-03-12T12:13:10.276Z,904
2017-03-12T12:14:10.189Z,900
2017-03-12T12:15:10.722Z,892
2017-03-12T12:16:10.246Z,884
2017-03-12T12:17:09.858Z,876
2017-03-12T12:18:10.201Z,876
2017-03-12T12:19:10.250Z,872
2017-03-12T12:20:10.596Z,868
2017-03-12T12:21:10.259Z,860
2017-03-12T12:22:10.676Z,868
2017-03-12T12:23:10.623Z,860
2017-03-12T12:24:10.237Z,848
2017-03-12T12:25:10.391Z,856
2017-03-12T12:26:10.635Z,848
2017-03-12T12:27:10.720Z,852
2017-03-12T12:28:10.286Z,852
2017-03-12T12:29:10.663Z,848
2017-03-12T12:30:09.968Z,848
2017-03-12T12:31:10.726Z,832
2017-03-12T12:32:10.327Z,844
2017-03-12T12:33:10.714Z,844
2017-03-12T12:34:10.803Z,836
2017-03-12T12:35:10.362Z,832
2017-03-12T12:36:10.750Z,832
2017-03-12T12:37:10.752Z,824
2017-03-12T12:38:10.360Z,828
2017-03-12T12:39:10.336Z,820
2017-03-12T12:40:10.372Z,816
2017-03-12T12:41:10.730Z,812
2017-03-12T12:42:10.407Z,804
2017-03-12T12:43:10.346Z,796
2017-03-12T12:44:10.854Z,788
2017-03-12T12:45:10.472Z,776
2017-03-12T12:46:10.571Z,776
2017-03-12T12:47:10.785Z,772
2017-03-12T12:48:10.438Z,768
2017-03-12T12:49:10.478Z,768
2017-03-12T12:50:10.016Z,764
2017-03-12T12:51:10.810Z,764
2017-03-12T12:52:10.910Z,760
2017-03-12T12:53:10.437Z,756
2017-03-12T12:54:10.412Z,760
2017-03-12T12:55:10.940Z,760
2017-03-12T12:56:10.920Z,760
2017-03-12T12:57:10.474Z,756
2017-03-12T12:58:10.935Z,744
2017-03-12T12:59:10.897Z,744
2017-03-12T13:00:10.522Z,760
2017-03-12T13:01:10.902Z,760
2017-03-12T13:02:10.906Z,772
2017-03-12T13:03:10.960Z,768
2017-03-12T13:04:10.972Z,772
2017-03-12T13:05:10.083Z,780
2017-03-12T13:06:10.877Z,792
2017-03-12T13:07:10.938Z,796
2017-03-12T13:08:10.556Z,796
2017-03-12T13:09:10.692Z,824
2017-03-12T13:10:10.941Z,844
2017-03-12T13:11:11.018Z,876
2017-03-12T13:12:11.051Z,932
2017-03-12T13:13:11.033Z,2680
2017-03-12T13:14:10.190Z,3368
2017-03-12T13:15:10.928Z,2384
2017-03-12T13:16:10.538Z,1640
2017-03-12T13:17:11.020Z,1832
2017-03-12T13:18:11.119Z,1708
2017-03-12T13:19:10.662Z,4452
2017-03-12T13:20:11.083Z,3492
2017-03-12T13:21:10.688Z,3224
2017-03-12T13:22:11.040Z,1636
2017-03-12T13:23:11.043Z,2284
2017-03-12T13:24:11.050Z,2480
2017-03-12T13:25:10.208Z,3248
2017-03-12T13:26:11.065Z,3424
2017-03-12T13:27:10.679Z,2028
2017-03-12T13:28:11.137Z,3148
2017-03-12T13:29:10.686Z,3704
2017-03-12T13:30:11.089Z,2460
2017-03-12T13:31:11.097Z,3584
2017-03-12T13:32:11.100Z,4256
2017-03-12T13:33:11.233Z,2568
2017-03-12T13:34:10.657Z,7176
2017-03-12T13:35:10.767Z,6936
2017-03-12T13:36:11.120Z,2492
2017-03-12T13:37:11.128Z,1724
2017-03-12T13:38:10.791Z,2496
2017-03-12T13:39:11.213Z,2796
2017-03-12T13:40:11.116Z,2476
2017-03-12T13:41:11.111Z,1972
2017-03-12T13:42:10.825Z,1788
2017-03-12T13:43:11.318Z,1320
2017-03-12T13:44:10.734Z,924
2017-03-12T13:45:11.241Z,872
2017-03-12T13:46:12.087Z,860
2017-03-12T13:47:11.236Z,848
2017-03-12T13:48:10.972Z,812
2017-03-12T13:49:10.826Z,788
2017-03-12T13:50:11.211Z,780
2017-03-12T13:51:11.236Z,756
2017-03-12T13:52:11.278Z,748
2017-03-12T13:53:11.331Z,716
2017-03-12T13:54:11.248Z,700
2017-03-12T13:55:11.185Z,700
2017-03-12T13:56:11.312Z,688
2017-03-12T13:57:11.224Z,660
2017-03-12T13:58:11.207Z,648
2017-03-12T13:59:11.261Z,640